Medford, Oregon
Current Conditions -  °F | °C
As of 6:53 AM on Monday 22 Dec 2014 (Local Time) from KMFR Reporting Station
Overcast Overcast  
Wind Chill: 54°   Ceiling: 8000
Heat Index: 54°   Visibility: 10mi
Dew Point: 53°   Wind: 5mph
Humidity: 97%   Direction: 200°SSW
Pressure: 30.33"   Gusts: NA
Location:  42.32°N, 122.88°W
Report Text: KMFR 221453Z 20004KT 10SM OVC080 12/12 A3033 RMK AO2 RAE12 SLP268 P0001 60001 T01220117 51022
Loading
Personal Weather Stations






























Interactive Weather Map New forecast layout! Learn more

10-Day Weather Forecast

Advertisements
Track Severe Weather on mobile